aviador You're here:

KTVY Decoded Metar

in
Report Time2017-11-24 08:55:00
UTC Time2017-11-24 09:02:17
Flight Rules mvfr MVFR
WindCalm
Visibility8047 m
Phenomena:Mist
Clouds:N/A
Expected CloudBase > 400 ft AGL from Temp-Dew spread
CeilingNone
Temp06°C
Dew Point05°C (93% RH)
AAT4.9°C
QNH1015 hPa
Raw Report
METAR KTVY 240855Z AUTO 00000KT 5SM BR CLR 06/05 A2998 RMK AO2=

Extra information for KTVY:More info

Social comments